Time;durP1;ratioP1;P1;durP2;ratioP2;P2;SDS_P1;SDS_P2;PMS_P1;PMS_P2;Temp;Humidity;BMP_temperature;BMP_pressure;BME280_temperature;BME280_humidity;BME280_pressure;Samples;Min_cycle;Max_cycle;Signal;HPM_P1;HPM_P2
2023/09/21 00:00:49;;;;;;;;;;;17.40;99.90;;;;;;4930601;29;20484;-83
2023/09/21 00:03:15;;;;;;;;;;;17.40;99.90;;;;;;4935411;28;20369;-84
2023/09/21 00:05:46;;;;;;;;;;;17.40;99.90;;;;;;4918493;29;19937;-86
2023/09/21 00:08:11;;;;;;;;;;;17.40;99.90;;;;;;4944694;28;19954;-84
2023/09/21 00:10:37;;;;;;;;;;;17.40;99.90;;;;;;4918434;29;20514;-83
2023/09/21 00:13:05;;;;;;;;;;;17.40;99.90;;;;;;4933768;29;19973;-83
2023/09/21 00:15:31;;;;;;;;;;;17.40;99.90;;;;;;4934668;28;20026;-84
2023/09/21 00:17:57;;;;;;;;;;;17.40;99.90;;;;;;4934174;28;20009;-81
2023/09/21 00:20:36;;;;;;;;;;;17.40;99.90;;;;;;4934710;29;19934;-84
2023/09/21 00:23:08;;;;;;;;;;;17.40;99.90;;;;;;4933686;28;19927;-83
2023/09/21 00:25:34;;;;;;;;;;;17.30;99.90;;;;;;4917683;28;19931;-85
2023/09/21 00:28:04;;;;;;;;;;;17.30;99.90;;;;;;4934760;28;19934;-83
2023/09/21 00:30:30;;;;;;;;;;;17.30;99.90;;;;;;4934644;29;19981;-83
2023/09/21 00:32:55;;;;;;;;;;;17.30;99.90;;;;;;4934469;29;20635;-83
2023/09/21 00:35:23;;;;;;;;;;;17.30;99.90;;;;;;4930835;28;19933;-85
2023/09/21 00:37:48;;;;;;;;;;;17.30;99.90;;;;;;4928500;29;20866;-84
2023/09/21 00:40:20;;;;;;;;;;;17.40;99.90;;;;;;4932871;28;19981;-84
2023/09/21 00:42:46;;;;;;;;;;;17.40;99.90;;;;;;4934185;29;20009;-83
2023/09/21 00:45:13;;;;;;;;;;;17.40;99.90;;;;;;4932700;29;20022;-83
2023/09/21 00:47:39;;;;;;;;;;;17.40;99.90;;;;;;4937351;28;19931;-83
2023/09/21 00:50:09;;;;;;;;;;;17.40;99.90;;;;;;4918435;29;19931;-84
2023/09/21 00:52:36;;;;;;;;;;;17.40;99.90;;;;;;4935014;29;19930;-83
2023/09/21 00:55:02;;;;;;;;;;;17.50;99.90;;;;;;4934198;29;19956;-83
2023/09/21 00:57:27;;;;;;;;;;;17.40;99.90;;;;;;4933152;29;19998;-84
2023/09/21 00:59:53;;;;;;;;;;;17.40;99.90;;;;;;4934536;28;20394;-83
2023/09/21 01:02:21;;;;;;;;;;;17.50;99.90;;;;;;4931131;28;19930;-83
2023/09/21 01:04:47;;;;;;;;;;;17.50;99.90;;;;;;4933360;28;19926;-82
2023/09/21 01:07:22;;;;;;;;;;;17.50;99.90;;;;;;4938818;29;19942;-82
2023/09/21 01:09:50;;;;;;;;;;;17.60;99.90;;;;;;4934640;29;19950;-83
2023/09/21 01:12:16;;;;;;;;;;;17.60;99.90;;;;;;4931470;29;19927;-83
2023/09/21 01:14:43;;;;;;;;;;;17.70;99.90;;;;;;4937669;29;19934;-84
2023/09/21 01:17:09;;;;;;;;;;;17.70;99.90;;;;;;4936801;29;20340;-83
2023/09/21 01:19:35;;;;;;;;;;;17.60;99.90;;;;;;4939917;28;19930;-83
2023/09/21 01:22:06;;;;;;;;;;;17.70;99.90;;;;;;4945726;28;20271;-83
2023/09/21 01:24:32;;;;;;;;;;;17.70;99.90;;;;;;4933778;29;20029;-84
2023/09/21 01:26:57;;;;;;;;;;;17.70;99.90;;;;;;4933367;29;20152;-83
2023/09/21 01:29:23;;;;;;;;;;;17.70;99.90;;;;;;4933610;29;19927;-82
2023/09/21 01:31:49;;;;;;;;;;;17.70;99.90;;;;;;4934287;29;19931;-83
2023/09/21 01:34:14;;;;;;;;;;;17.60;99.90;;;;;;4934150;29;20143;-84
2023/09/21 01:36:43;;;;;;;;;;;17.70;99.90;;;;;;4931988;29;19931;-83
2023/09/21 01:39:09;;;;;;;;;;;17.70;99.90;;;;;;5000015;28;19976;-83
2023/09/21 01:41:35;;;;;;;;;;;17.60;99.90;;;;;;4931792;29;19931;-85
2023/09/21 01:44:01;;;;;;;;;;;17.70;99.90;;;;;;4933202;28;19934;-84
2023/09/21 01:46:26;;;;;;;;;;;17.60;99.90;;;;;;4933078;29;19927;-83
2023/09/21 01:48:53;;;;;;;;;;;17.60;99.90;;;;;;4931198;29;19973;-84
2023/09/21 01:51:19;;;;;;;;;;;17.60;99.90;;;;;;4932614;28;19935;-84
2023/09/21 01:53:45;;;;;;;;;;;17.60;99.90;;;;;;4933524;29;19927;-82
2023/09/21 01:56:11;;;;;;;;;;;17.70;99.90;;;;;;4933092;29;19934;-82
2023/09/21 01:58:37;;;;;;;;;;;17.60;99.90;;;;;;4932999;29;19970;-87
2023/09/21 02:01:03;;;;;;;;;;;17.60;99.90;;;;;;4931476;29;20032;-82
2023/09/21 02:03:31;;;;;;;;;;;17.60;99.90;;;;;;4933229;29;19989;-83
2023/09/21 02:05:59;;;;;;;;;;;17.70;99.90;;;;;;4933134;29;19994;-83
2023/09/21 02:08:25;;;;;;;;;;;17.70;99.90;;;;;;4945313;28;20374;-83
2023/09/21 02:10:52;;;;;;;;;;;17.80;99.90;;;;;;4932557;28;19953;-83
2023/09/21 02:13:18;;;;;;;;;;;17.70;99.90;;;;;;4932824;29;19938;-85
2023/09/21 02:15:51;;;;;;;;;;;17.70;99.90;;;;;;4932694;29;19927;-83
2023/09/21 02:18:17;;;;;;;;;;;17.80;99.90;;;;;;4931900;29;19926;-83
2023/09/21 02:20:44;;;;;;;;;;;17.80;99.90;;;;;;4933774;29;19989;-84
2023/09/21 02:23:10;;;;;;;;;;;17.80;99.90;;;;;;4933524;29;19926;-85
2023/09/21 02:25:39;;;;;;;;;;;17.80;99.90;;;;;;4932498;28;19927;-86
2023/09/21 02:28:09;;;;;;;;;;;17.80;99.90;;;;;;4913843;29;19931;-88
2023/09/21 02:30:39;;;;;;;;;;;17.80;99.90;;;;;;4930499;29;20366;-84
2023/09/21 02:33:05;;;;;;;;;;;17.70;99.90;;;;;;4932317;29;20451;-83
2023/09/21 02:35:32;;;;;;;;;;;17.70;99.90;;;;;;4929917;29;19943;-85
2023/09/21 02:37:57;;;;;;;;;;;17.70;99.90;;;;;;4932836;28;19931;-83
2023/09/21 02:40:24;;;;;;;;;;;17.70;99.90;;;;;;4946587;28;19927;-84
2023/09/21 02:42:49;;;;;;;;;;;17.60;99.90;;;;;;4933036;29;19926;-84
2023/09/21 02:45:15;;;;;;;;;;;17.60;99.90;;;;;;4933351;29;19931;-84
2023/09/21 02:47:42;;;;;;;;;;;17.60;99.90;;;;;;4933106;29;19965;-83
2023/09/21 02:50:25;;;;;;;;;;;17.60;99.90;;;;;;4930588;29;19984;-84
2023/09/21 02:52:52;;;;;;;;;;;17.60;99.90;;;;;;4932391;29;19927;-83
2023/09/21 02:55:18;;;;;;;;;;;17.70;99.90;;;;;;4933215;29;19927;-83
2023/09/21 02:57:44;;;;;;;;;;;17.70;99.90;;;;;;4933287;29;19931;-85
2023/09/21 03:00:21;;;;;;;;;;;17.60;99.90;;;;;;4948211;28;19931;-83
2023/09/21 03:02:49;;;;;;;;;;;17.60;99.90;;;;;;4930591;29;20389;-83
2023/09/21 03:05:18;;;;;;;;;;;17.60;99.90;;;;;;4932134;29;19927;-85
2023/09/21 03:07:44;;;;;;;;;;;17.60;99.90;;;;;;4938044;29;19926;-82
2023/09/21 03:10:11;;;;;;;;;;;17.60;99.90;;;;;;4932503;29;19977;-84
2023/09/21 03:12:37;;;;;;;;;;;17.60;99.90;;;;;;4930660;28;20436;-83
2023/09/21 03:15:06;;;;;;;;;;;17.50;99.90;;;;;;4930471;28;19931;-85
2023/09/21 03:17:33;;;;;;;;;;;17.50;99.90;;;;;;4913034;29;19931;-85
2023/09/21 03:20:11;;;;;;;;;;;17.50;99.90;;;;;;4932381;29;19927;-82
2023/09/21 03:22:37;;;;;;;;;;;17.40;99.90;;;;;;4931986;29;19927;-83
2023/09/21 03:25:03;;;;;;;;;;;17.40;99.90;;;;;;4931253;28;20328;-84
2023/09/21 03:27:29;;;;;;;;;;;17.40;99.90;;;;;;4909430;28;20006;-86
2023/09/21 03:29:55;;;;;;;;;;;17.40;99.90;;;;;;4931769;29;20275;-83
2023/09/21 03:32:21;;;;;;;;;;;17.40;99.90;;;;;;4932370;29;19930;-86
2023/09/21 03:34:46;;;;;;;;;;;17.30;99.90;;;;;;4931291;28;19934;-84
2023/09/21 03:37:13;;;;;;;;;;;17.40;99.90;;;;;;4932194;29;19938;-82
2023/09/21 03:39:39;;;;;;;;;;;17.40;99.90;;;;;;4931210;29;20405;-82
2023/09/21 03:42:05;;;;;;;;;;;17.40;99.90;;;;;;4931623;29;19927;-81
2023/09/21 03:44:31;;;;;;;;;;;17.40;99.90;;;;;;4930906;29;19926;-85
2023/09/21 03:46:57;;;;;;;;;;;17.40;99.90;;;;;;4930963;29;19927;-83
2023/09/21 03:49:23;;;;;;;;;;;17.40;99.90;;;;;;4931731;28;19937;-83
2023/09/21 03:51:48;;;;;;;;;;;17.30;99.90;;;;;;4931732;29;19927;-83
2023/09/21 03:54:15;;;;;;;;;;;17.30;99.90;;;;;;4931592;28;19931;-82
2023/09/21 03:56:41;;;;;;;;;;;17.30;99.90;;;;;;4932700;29;19931;-83
2023/09/21 03:59:07;;;;;;;;;;;17.30;99.90;;;;;;4932316;29;20656;-82
2023/09/21 04:01:36;;;;;;;;;;;17.40;99.90;;;;;;4931174;29;19950;-83
2023/09/21 04:04:08;;;;;;;;;;;17.30;99.90;;;;;;4929650;29;19939;-83
2023/09/21 04:06:33;;;;;;;;;;;17.40;99.90;;;;;;4934497;29;19977;-83
2023/09/21 04:08:59;;;;;;;;;;;17.30;99.90;;;;;;4939170;28;19969;-83
2023/09/21 04:11:28;;;;;;;;;;;17.40;99.90;;;;;;4930763;29;19934;-83
2023/09/21 04:13:53;;;;;;;;;;;17.50;99.90;;;;;;4931493;29;20381;-83
2023/09/21 04:16:19;;;;;;;;;;;17.50;99.90;;;;;;4930180;28;19927;-81
2023/09/21 04:18:44;;;;;;;;;;;17.50;99.90;;;;;;4932097;29;19926;-82
2023/09/21 04:21:10;;;;;;;;;;;17.50;99.90;;;;;;4931017;29;19973;-82
2023/09/21 04:23:35;;;;;;;;;;;17.50;99.90;;;;;;4932073;29;19934;-83
2023/09/21 04:26:01;;;;;;;;;;;17.40;99.90;;;;;;4931049;29;19938;-84
2023/09/21 04:28:26;;;;;;;;;;;17.40;99.90;;;;;;4932239;29;20075;-84
2023/09/21 04:30:52;;;;;;;;;;;17.30;99.90;;;;;;4929591;29;19931;-83
2023/09/21 04:33:17;;;;;;;;;;;17.30;99.90;;;;;;4930916;29;19941;-81
2023/09/21 04:35:43;;;;;;;;;;;17.30;99.90;;;;;;4930161;29;20117;-82
2023/09/21 04:38:09;;;;;;;;;;;17.30;99.90;;;;;;4930575;29;19931;-84
2023/09/21 04:40:35;;;;;;;;;;;17.20;99.90;;;;;;4930805;28;20397;-86
2023/09/21 04:43:00;;;;;;;;;;;17.20;99.90;;;;;;4945422;28;20286;-83
2023/09/21 04:45:26;;;;;;;;;;;17.20;99.90;;;;;;4930930;29;19934;-83
2023/09/21 04:48:00;;;;;;;;;;;17.20;99.90;;;;;;4932032;29;19938;-82
2023/09/21 04:50:25;;;;;;;;;;;17.20;99.90;;;;;;4934226;29;19931;-83
2023/09/21 04:52:51;;;;;;;;;;;17.20;99.90;;;;;;4934259;29;20435;-83
2023/09/21 04:55:17;;;;;;;;;;;17.20;99.90;;;;;;4933388;29;19931;-83
2023/09/21 04:57:43;;;;;;;;;;;17.20;99.90;;;;;;4916359;29;20366;-82
2023/09/21 05:00:12;;;;;;;;;;;17.20;99.90;;;;;;4934284;29;19931;-83
2023/09/21 05:02:37;;;;;;;;;;;17.10;99.90;;;;;;4934865;29;19927;-82
2023/09/21 05:05:03;;;;;;;;;;;17.10;99.90;;;;;;4917546;29;19934;-84
2023/09/21 05:07:29;;;;;;;;;;;17.10;99.90;;;;;;4942866;29;19931;-82
2023/09/21 05:09:54;;;;;;;;;;;17.00;99.90;;;;;;4933934;29;19962;-81
2023/09/21 05:12:20;;;;;;;;;;;17.10;99.90;;;;;;4934351;29;19927;-84
2023/09/21 05:14:46;;;;;;;;;;;17.00;99.90;;;;;;4934703;29;19931;-82
2023/09/21 05:17:12;;;;;;;;;;;17.00;99.90;;;;;;4932509;29;19931;-82
2023/09/21 05:19:37;;;;;;;;;;;17.10;99.90;;;;;;4934802;28;19993;-84
2023/09/21 05:22:04;;;;;;;;;;;17.10;99.90;;;;;;4932748;29;19972;-82
2023/09/21 05:24:30;;;;;;;;;;;17.10;99.90;;;;;;4933368;29;20366;-83
2023/09/21 05:26:55;;;;;;;;;;;17.10;99.90;;;;;;4935102;28;19988;-84
2023/09/21 05:29:22;;;;;;;;;;;17.20;99.90;;;;;;4934632;29;19927;-84
2023/09/21 05:31:48;;;;;;;;;;;17.20;99.90;;;;;;4934085;28;20298;-82
2023/09/21 05:34:14;;;;;;;;;;;17.30;99.90;;;;;;4913206;29;19969;-84
2023/09/21 05:36:39;;;;;;;;;;;17.40;99.90;;;;;;4933451;28;20397;-84
2023/09/21 05:39:05;;;;;;;;;;;17.40;99.90;;;;;;4932183;29;19934;-83
2023/09/21 05:41:31;;;;;;;;;;;17.40;99.90;;;;;;4933220;29;19931;-83
2023/09/21 05:43:57;;;;;;;;;;;17.40;99.90;;;;;;4933168;29;19984;-85
2023/09/21 05:46:23;;;;;;;;;;;17.50;99.90;;;;;;4933357;29;20377;-84
2023/09/21 05:48:48;;;;;;;;;;;17.50;99.90;;;;;;4932817;28;19931;-82
2023/09/21 05:51:14;;;;;;;;;;;17.50;99.90;;;;;;4934359;29;20032;-83
2023/09/21 05:53:40;;;;;;;;;;;17.50;99.90;;;;;;4933098;29;19927;-84
2023/09/21 05:56:05;;;;;;;;;;;17.60;99.90;;;;;;4932380;29;20025;-83
2023/09/21 05:58:31;;;;;;;;;;;17.60;99.90;;;;;;4934419;28;19949;-83
2023/09/21 06:00:59;;;;;;;;;;;17.60;99.90;;;;;;4915922;29;19934;-84
2023/09/21 06:03:26;;;;;;;;;;;17.70;99.90;;;;;;4949443;28;20271;-83
2023/09/21 06:05:52;;;;;;;;;;;17.60;99.90;;;;;;4917305;29;19926;-83
2023/09/21 06:08:19;;;;;;;;;;;17.60;99.90;;;;;;4933637;29;20365;-83
2023/09/21 06:10:45;;;;;;;;;;;17.70;99.90;;;;;;4933285;29;19931;-86
2023/09/21 06:13:12;;;;;;;;;;;17.60;99.90;;;;;;4932561;29;19982;-83
2023/09/21 06:15:45;;;;;;;;;;;17.70;99.90;;;;;;4934039;29;19931;-83
2023/09/21 06:18:10;;;;;;;;;;;17.70;99.90;;;;;;4933811;29;19934;-82
2023/09/21 06:20:36;;;;;;;;;;;17.70;99.90;;;;;;4931524;29;20329;-84
2023/09/21 06:23:02;;;;;;;;;;;17.80;99.90;;;;;;4933085;28;19930;-82
2023/09/21 06:25:27;;;;;;;;;;;17.80;99.90;;;;;;4948345;28;19926;-83
2023/09/21 06:27:53;;;;;;;;;;;17.80;99.90;;;;;;4933863;29;19997;-82
2023/09/21 06:30:22;;;;;;;;;;;17.80;99.90;;;;;;4932761;29;19974;-84
2023/09/21 06:32:47;;;;;;;;;;;17.80;99.90;;;;;;4947839;28;19933;-83
2023/09/21 06:35:14;;;;;;;;;;;17.80;99.90;;;;;;4931197;29;19934;-85
2023/09/21 06:37:40;;;;;;;;;;;17.80;99.90;;;;;;4933704;29;19927;-83
2023/09/21 06:40:06;;;;;;;;;;;17.70;99.90;;;;;;4932740;29;19926;-83
2023/09/21 06:42:32;;;;;;;;;;;17.80;99.90;;;;;;4935655;28;19927;-84
2023/09/21 06:44:57;;;;;;;;;;;17.80;99.90;;;;;;4932667;29;19973;-83
2023/09/21 06:47:26;;;;;;;;;;;17.80;99.90;;;;;;4932635;29;19934;-83
2023/09/21 06:49:53;;;;;;;;;;;17.80;99.90;;;;;;4916139;29;20385;-83
2023/09/21 06:52:21;;;;;;;;;;;17.80;99.90;;;;;;4929791;28;19927;-84
2023/09/21 06:54:47;;;;;;;;;;;17.70;99.90;;;;;;4933348;29;19927;-85
2023/09/21 06:57:13;;;;;;;;;;;17.70;99.90;;;;;;4932313;29;19931;-86
2023/09/21 06:59:39;;;;;;;;;;;17.60;99.90;;;;;;4932629;29;19926;-83
2023/09/21 07:02:04;;;;;;;;;;;17.60;99.90;;;;;;4930095;29;20360;-84
2023/09/21 07:04:33;;;;;;;;;;;17.70;99.90;;;;;;4930447;28;19931;-85
2023/09/21 07:07:05;;;;;;;;;;;17.60;99.90;;;;;;4919075;29;19934;-84
2023/09/21 07:09:31;;;;;;;;;;;17.50;99.90;;;;;;4950728;28;19931;-84
2023/09/21 07:11:56;;;;;;;;;;;17.50;99.90;;;;;;4925494;29;19973;-83
2023/09/21 07:14:22;;;;;;;;;;;17.50;99.90;;;;;;4943719;28;19970;-84
2023/09/21 07:16:48;;;;;;;;;;;17.50;99.90;;;;;;4931901;29;19927;-84
2023/09/21 07:19:14;;;;;;;;;;;17.50;99.90;;;;;;4938155;29;20378;-83
2023/09/21 07:21:40;;;;;;;;;;;17.50;99.90;;;;;;4931959;29;19926;-84
2023/09/21 07:24:07;;;;;;;;;;;17.50;99.90;;;;;;4932854;28;19930;-83
2023/09/21 07:26:33;;;;;;;;;;;17.60;99.90;;;;;;4932097;28;19953;-83
2023/09/21 07:29:02;;;;;;;;;;;17.60;99.90;;;;;;4930121;29;19931;-84
2023/09/21 07:31:29;;;;;;;;;;;17.70;99.90;;;;;;4924790;28;19927;-85
2023/09/21 07:33:57;;;;;;;;;;;17.80;99.90;;;;;;4912321;28;20133;-84
2023/09/21 07:36:23;;;;;;;;;;;17.90;99.90;;;;;;4930759;29;20450;-82
2023/09/21 07:38:48;;;;;;;;;;;17.90;99.90;;;;;;4933122;28;19930;-83
2023/09/21 07:41:14;;;;;;;;;;;18.00;99.90;;;;;;4931262;29;20289;-85
2023/09/21 07:43:40;;;;;;;;;;;18.00;99.90;;;;;;4928331;28;20289;-84
2023/09/21 07:46:05;;;;;;;;;;;18.00;99.90;;;;;;4932628;29;20412;-85
2023/09/21 07:48:32;;;;;;;;;;;18.00;99.90;;;;;;4934340;29;19927;-86
2023/09/21 07:51:03;;;;;;;;;;;18.00;99.90;;;;;;4917602;29;20255;-84
2023/09/21 07:53:28;;;;;;;;;;;18.00;99.90;;;;;;4930510;29;19930;-83
2023/09/21 07:55:58;;;;;;;;;;;17.90;99.90;;;;;;4930949;29;19927;-82
2023/09/21 07:58:23;;;;;;;;;;;17.90;99.90;;;;;;4912529;29;19931;-82
2023/09/21 08:00:49;;;;;;;;;;;17.90;99.90;;;;;;4928353;29;19960;-83
2023/09/21 08:03:16;;;;;;;;;;;18.00;99.90;;;;;;4931755;29;19934;-84
2023/09/21 08:05:42;;;;;;;;;;;17.90;99.90;;;;;;4939520;28;19977;-85
2023/09/21 08:08:07;;;;;;;;;;;17.90;99.90;;;;;;4928033;29;19931;-86
2023/09/21 08:10:33;;;;;;;;;;;17.90;99.90;;;;;;4931924;28;20404;-84
2023/09/21 08:13:01;;;;;;;;;;;17.80;99.90;;;;;;4933276;29;19957;-88
2023/09/21 08:15:26;;;;;;;;;;;17.80;99.90;;;;;;4944134;28;19931;-85
2023/09/21 08:17:53;;;;;;;;;;;17.80;99.90;;;;;;4931208;28;19931;-87
2023/09/21 08:20:22;;;;;;;;;;;17.80;99.90;;;;;;4900034;29;20358;-87
2023/09/21 08:22:49;;;;;;;;;;;17.90;99.90;;;;;;4929716;29;20586;-86
2023/09/21 08:25:14;;;;;;;;;;;17.90;99.90;;;;;;4932890;29;19958;-85
2023/09/21 08:27:40;;;;;;;;;;;17.90;99.90;;;;;;4934028;29;20758;-86
2023/09/21 08:30:08;;;;;;;;;;;17.90;99.90;;;;;;4934495;29;20382;-84
2023/09/21 08:32:34;;;;;;;;;;;18.00;99.90;;;;;;4935536;29;20275;-85
2023/09/21 08:34:59;;;;;;;;;;;18.00;99.90;;;;;;4933058;29;19927;-85
2023/09/21 08:37:25;;;;;;;;;;;18.00;99.90;;;;;;4933519;29;19926;-84
2023/09/21 08:39:50;;;;;;;;;;;18.00;99.90;;;;;;4933959;29;19972;-84
2023/09/21 08:42:16;;;;;;;;;;;18.00;99.90;;;;;;4932103;29;19927;-85
2023/09/21 08:44:43;;;;;;;;;;;17.90;99.90;;;;;;4934131;29;19934;-84
2023/09/21 08:47:12;;;;;;;;;;;17.90;99.90;;;;;;4931568;28;19931;-84
2023/09/21 08:49:38;;;;;;;;;;;17.90;99.90;;;;;;4948966;28;19927;-87
2023/09/21 08:52:05;;;;;;;;;;;17.90;99.90;;;;;;4918633;28;19965;-90
2023/09/21 08:54:31;;;;;;;;;;;17.90;99.90;;;;;;4923017;28;19938;-83
2023/09/21 08:56:58;;;;;;;;;;;17.90;99.90;;;;;;4935480;29;20373;-86
2023/09/21 08:59:24;;;;;;;;;;;17.90;99.90;;;;;;4931726;29;20313;-85
2023/09/21 09:01:50;;;;;;;;;;;17.90;99.90;;;;;;4956951;28;19926;-84
2023/09/21 09:04:15;;;;;;;;;;;17.90;99.90;;;;;;4934844;28;19962;-83
2023/09/21 09:06:41;;;;;;;;;;;18.00;99.90;;;;;;4945705;29;19941;-84
2023/09/21 09:09:07;;;;;;;;;;;17.90;99.90;;;;;;4945826;28;19935;-85
2023/09/21 09:11:37;;;;;;;;;;;17.90;99.90;;;;;;4931298;29;20021;-86
2023/09/21 09:14:04;;;;;;;;;;;17.90;99.90;;;;;;4931869;29;19933;-85
2023/09/21 09:16:30;;;;;;;;;;;18.00;99.90;;;;;;4932082;29;19927;-85
2023/09/21 09:19:00;;;;;;;;;;;17.90;99.90;;;;;;4931314;29;20386;-86
2023/09/21 09:21:26;;;;;;;;;;;17.90;99.90;;;;;;4930084;29;19927;-85
2023/09/21 09:23:52;;;;;;;;;;;17.80;99.90;;;;;;4931406;28;19937;-87
2023/09/21 09:26:19;;;;;;;;;;;17.80;99.90;;;;;;4931369;29;20378;-84
2023/09/21 09:28:44;;;;;;;;;;;17.80;99.90;;;;;;4933290;28;19930;-86
2023/09/21 09:31:14;;;;;;;;;;;17.70;99.90;;;;;;4934302;28;19938;-84
2023/09/21 09:33:40;;;;;;;;;;;17.70;99.90;;;;;;4914321;29;19926;-84
2023/09/21 09:36:06;;;;;;;;;;;17.60;99.90;;;;;;4927556;29;19927;-86
2023/09/21 09:38:32;;;;;;;;;;;17.60;99.90;;;;;;4925665;28;20449;-88
2023/09/21 09:41:00;;;;;;;;;;;17.60;99.90;;;;;;4931530;28;19927;-85
2023/09/21 09:43:27;;;;;;;;;;;17.50;99.90;;;;;;4932129;28;19938;-88
2023/09/21 09:45:53;;;;;;;;;;;17.40;99.90;;;;;;4922108;29;19928;-86
2023/09/21 09:48:19;;;;;;;;;;;17.40;99.90;;;;;;4914306;28;20385;-85
2023/09/21 09:50:50;;;;;;;;;;;17.30;99.90;;;;;;4921828;28;19930;-87
2023/09/21 09:53:17;;;;;;;;;;;17.20;99.90;;;;;;4938645;28;19927;-87
2023/09/21 09:55:44;;;;;;;;;;;17.10;99.90;;;;;;4941183;28;19938;-85
2023/09/21 09:58:10;;;;;;;;;;;16.90;99.90;;;;;;4928958;28;19931;-84
2023/09/21 10:00:37;;;;;;;;;;;16.80;99.90;;;;;;4926579;28;19934;-86
2023/09/21 10:03:04;;;;;;;;;;;16.70;99.90;;;;;;4923690;28;19933;-85
2023/09/21 10:05:30;;;;;;;;;;;16.60;99.90;;;;;;4919270;29;19973;-88
2023/09/21 10:08:00;;;;;;;;;;;16.60;99.90;;;;;;4927578;29;19980;-88
2023/09/21 10:10:28;;;;;;;;;;;16.50;99.90;;;;;;4941873;28;19980;-85
2023/09/21 10:12:56;;;;;;;;;;;16.50;99.90;;;;;;4927274;28;20357;-86
2023/09/21 10:15:26;;;;;;;;;;;16.40;99.90;;;;;;4912228;29;20004;-86
2023/09/21 10:17:55;;;;;;;;;;;16.40;99.90;;;;;;4909426;29;19927;-85
2023/09/21 10:20:32;;;;;;;;;;;16.30;99.90;;;;;;4915827;29;19984;-85
2023/09/21 10:23:01;;;;;;;;;;;16.20;99.90;;;;;;4928382;29;20323;-86
2023/09/21 10:25:42;;;;;;;;;;;16.20;99.90;;;;;;4917587;29;20438;-85
2023/09/21 10:28:34;;;;;;;;;;;16.20;99.90;;;;;;4918333;29;20021;-85
2023/09/21 10:31:06;;;;;;;;;;;16.20;99.90;;;;;;4933844;28;19927;-86
2023/09/21 10:33:49;;;;;;;;;;;16.10;99.90;;;;;;4930787;29;20018;-85
2023/09/21 10:36:19;;;;;;;;;;;16.10;99.90;;;;;;4932761;29;19927;-86
2023/09/21 10:39:05;;;;;;;;;;;16.10;99.90;;;;;;4932929;29;19937;-86
2023/09/21 10:41:30;;;;;;;;;;;16.20;99.90;;;;;;4914573;29;19927;-87
2023/09/21 10:43:56;;;;;;;;;;;16.20;99.90;;;;;;4923122;29;20380;-86
2023/09/21 10:46:23;;;;;;;;;;;16.20;99.90;;;;;;4931109;28;20471;-86
2023/09/21 10:49:05;;;;;;;;;;;16.20;99.90;;;;;;4932625;28;19934;-86
2023/09/21 10:51:31;;;;;;;;;;;16.20;99.90;;;;;;4917621;29;19931;-86
2023/09/21 10:53:58;;;;;;;;;;;16.20;99.90;;;;;;4929613;29;19988;-86
2023/09/21 10:56:25;;;;;;;;;;;16.20;99.90;;;;;;4931774;29;19946;-86
2023/09/21 10:58:50;;;;;;;;;;;16.20;99.90;;;;;;4915887;28;19977;-86
2023/09/21 11:01:19;;;;;;;;;;;16.20;99.90;;;;;;4923242;28;19974;-86
2023/09/21 11:03:47;;;;;;;;;;;16.20;99.90;;;;;;4913914;28;19957;-85
2023/09/21 11:06:16;;;;;;;;;;;16.10;99.90;;;;;;4930572;29;20327;-85
2023/09/21 11:08:48;;;;;;;;;;;16.10;99.90;;;;;;4931138;29;19927;-85
2023/09/21 11:11:19;;;;;;;;;;;16.20;99.90;;;;;;4935518;29;19977;-85
2023/09/21 11:13:49;;;;;;;;;;;16.10;99.90;;;;;;4958137;28;19984;-85
2023/09/21 11:16:15;;;;;;;;;;;16.10;99.90;;;;;;4933641;29;20262;-85
2023/09/21 11:18:41;;;;;;;;;;;16.10;99.90;;;;;;4916572;29;19927;-85
2023/09/21 11:21:11;;;;;;;;;;;16.00;99.90;;;;;;4922143;29;19930;-85
2023/09/21 11:23:40;;;;;;;;;;;16.00;99.90;;;;;;4924370;29;19934;-85
2023/09/21 11:26:10;;;;;;;;;;;16.00;99.90;;;;;;4932350;29;19927;-85
2023/09/21 11:28:36;;;;;;;;;;;16.00;99.90;;;;;;4940670;29;19981;-85
2023/09/21 11:31:04;;;;;;;;;;;16.10;99.90;;;;;;4938291;29;19934;-85
2023/09/21 11:33:32;;;;;;;;;;;16.10;99.90;;;;;;4951426;29;19927;-84
2023/09/21 11:35:58;;;;;;;;;;;16.20;99.90;;;;;;4941248;28;19931;-85
2023/09/21 11:38:23;;;;;;;;;;;16.20;99.90;;;;;;4906645;29;19933;-84
2023/09/21 11:40:49;;;;;;;;;;;16.20;99.90;;;;;;4928663;29;19931;-85
2023/09/21 11:43:16;;;;;;;;;;;16.10;99.90;;;;;;4915815;29;20392;-83
2023/09/21 11:45:45;;;;;;;;;;;16.10;99.90;;;;;;4945692;28;19926;-86
2023/09/21 11:48:12;;;;;;;;;;;16.10;99.90;;;;;;4927562;28;19984;-83
2023/09/21 11:50:38;;;;;;;;;;;16.10;99.90;;;;;;4925270;29;19958;-83
2023/09/21 11:53:07;;;;;;;;;;;16.00;99.90;;;;;;4933720;28;19980;-83
2023/09/21 11:55:33;;;;;;;;;;;16.00;99.90;;;;;;4931079;29;19991;-83
2023/09/21 11:58:13;;;;;;;;;;;15.90;99.90;;;;;;4931432;29;20286;-83
2023/09/21 12:00:49;;;;;;;;;;;15.90;99.90;;;;;;4931543;29;19927;-83
2023/09/21 12:03:21;;;;;;;;;;;15.90;99.90;;;;;;4936699;29;19926;-83
2023/09/21 12:05:47;;;;;;;;;;;15.90;99.90;;;;;;4939767;28;19953;-83
2023/09/21 12:08:14;;;;;;;;;;;15.80;99.90;;;;;;4934245;29;19935;-82
2023/09/21 12:10:45;;;;;;;;;;;15.80;99.90;;;;;;4931176;29;20006;-83
2023/09/21 12:13:14;;;;;;;;;;;15.80;99.90;;;;;;4931239;29;19934;-83
2023/09/21 12:15:40;;;;;;;;;;;15.80;99.90;;;;;;4930842;29;19927;-82
2023/09/21 12:18:07;;;;;;;;;;;15.70;99.90;;;;;;4930078;28;19981;-83
2023/09/21 12:20:32;;;;;;;;;;;15.70;99.90;;;;;;4932177;29;20018;-83
2023/09/21 12:22:58;;;;;;;;;;;15.70;99.90;;;;;;4931785;29;20010;-83
2023/09/21 12:25:26;;;;;;;;;;;15.70;99.90;;;;;;4933113;28;19927;-83
2023/09/21 12:27:52;;;;;;;;;;;15.80;99.90;;;;;;4930923;29;19980;-83
2023/09/21 12:30:17;;;;;;;;;;;15.80;99.90;;;;;;4933907;29;20289;-84
2023/09/21 12:32:43;;;;;;;;;;;15.80;99.90;;;;;;4942749;29;19931;-83
2023/09/21 12:35:09;;;;;;;;;;;15.80;99.90;;;;;;4932520;29;19938;-84
2023/09/21 12:37:36;;;;;;;;;;;15.80;99.90;;;;;;4931738;29;20069;-83
2023/09/21 12:40:11;;;;;;;;;;;15.90;99.90;;;;;;4932213;29;19927;-83
2023/09/21 12:42:41;;;;;;;;;;;15.90;99.90;;;;;;4928483;29;19939;-84
2023/09/21 12:45:17;;;;;;;;;;;15.90;99.90;;;;;;4924879;29;19953;-84
2023/09/21 12:47:43;;;;;;;;;;;16.00;99.90;;;;;;4931174;28;19977;-84
2023/09/21 12:50:09;;;;;;;;;;;16.10;99.90;;;;;;4931844;29;20036;-84
2023/09/21 12:52:35;;;;;;;;;;;16.10;99.90;;;;;;4932544;28;19970;-85
2023/09/21 12:55:05;;;;;;;;;;;16.10;99.90;;;;;;4931342;29;19974;-84
2023/09/21 12:57:37;;;;;;;;;;;16.20;99.90;;;;;;4946528;28;20009;-84
2023/09/21 13:00:21;;;;;;;;;;;16.20;99.90;;;;;;4931141;29;19935;-85
2023/09/21 13:02:47;;;;;;;;;;;16.20;99.90;;;;;;4937972;28;20374;-85
2023/09/21 13:05:13;;;;;;;;;;;16.20;99.90;;;;;;4931870;29;20006;-85
2023/09/21 13:07:42;;;;;;;;;;;16.20;99.90;;;;;;4931563;28;19926;-85
2023/09/21 13:10:08;;;;;;;;;;;16.20;99.90;;;;;;4930917;29;19935;-83
2023/09/21 13:12:35;;;;;;;;;;;16.20;99.90;;;;;;4932276;28;19931;-83
2023/09/21 13:15:01;;;;;;;;;;;16.20;99.90;;;;;;4938176;28;19928;-84
2023/09/21 13:17:27;;;;;;;;;;;16.20;99.90;;;;;;4937803;29;19934;-86
2023/09/21 13:19:53;;;;;;;;;;;16.10;99.90;;;;;;4949231;28;19926;-86
2023/09/21 13:22:18;;;;;;;;;;;16.10;99.90;;;;;;4950415;29;19970;-85
2023/09/21 13:24:44;;;;;;;;;;;16.10;99.90;;;;;;4960829;28;19926;-86
2023/09/21 13:27:10;;;;;;;;;;;16.10;99.90;;;;;;4951100;29;19933;-86
2023/09/21 13:29:36;;;;;;;;;;;16.10;99.90;;;;;;4920089;29;20377;-86
2023/09/21 13:32:02;;;;;;;;;;;16.20;99.90;;;;;;4949570;29;19926;-87
2023/09/21 13:34:28;;;;;;;;;;;16.10;99.90;;;;;;4934919;29;19982;-87
2023/09/21 13:36:54;;;;;;;;;;;16.20;99.90;;;;;;4949623;29;19931;-86
2023/09/21 13:39:19;;;;;;;;;;;16.20;99.90;;;;;;4951250;29;19927;-89
2023/09/21 13:41:49;;;;;;;;;;;16.20;99.90;;;;;;4950545;29;19969;-87
2023/09/21 13:44:14;;;;;;;;;;;16.10;99.90;;;;;;4950114;29;19934;-85
2023/09/21 13:46:40;;;;;;;;;;;16.10;99.90;;;;;;4959567;29;19927;-86
2023/09/21 13:49:06;;;;;;;;;;;16.00;99.90;;;;;;4953842;28;19927;-87
2023/09/21 13:51:33;;;;;;;;;;;16.00;99.90;;;;;;4950010;28;19938;-86
2023/09/21 13:53:59;;;;;;;;;;;15.90;99.90;;;;;;4949522;28;19937;-86
2023/09/21 13:56:24;;;;;;;;;;;15.90;99.90;;;;;;4946206;28;19963;-88
2023/09/21 13:58:50;;;;;;;;;;;15.90;99.90;;;;;;4917853;29;19927;-87
2023/09/21 14:01:16;;;;;;;;;;;15.80;99.90;;;;;;4933359;28;19937;-88
2023/09/21 14:03:42;;;;;;;;;;;15.80;99.90;;;;;;4932436;29;19927;-88
2023/09/21 14:06:07;;;;;;;;;;;15.80;99.90;;;;;;4933231;28;19931;-89
2023/09/21 14:08:33;;;;;;;;;;;15.70;99.90;;;;;;4933207;29;20378;-89
2023/09/21 14:10:58;;;;;;;;;;;15.70;99.90;;;;;;4938490;29;19937;-89
2023/09/21 14:13:24;;;;;;;;;;;15.70;99.90;;;;;;4934509;28;19926;-87
2023/09/21 14:15:50;;;;;;;;;;;15.60;99.90;;;;;;4933688;29;19930;-87